sensor_id;sensor_type;location;lat;lon;timestamp;P1;durP1;ratioP1;P2;durP2;ratioP2
11711;SDS011;5912;51.034;6.984;2023-08-20T00:00:55;5.60;;;5.05;;
11711;SDS011;5912;51.034;6.984;2023-08-20T00:03:21;6.18;;;5.57;;
11711;SDS011;5912;51.034;6.984;2023-08-20T00:05:47;7.03;;;6.30;;
11711;SDS011;5912;51.034;6.984;2023-08-20T00:08:19;6.47;;;5.88;;
11711;SDS011;5912;51.034;6.984;2023-08-20T00:10:56;7.35;;;5.70;;
11711;SDS011;5912;51.034;6.984;2023-08-20T00:13:25;6.15;;;5.15;;
11711;SDS011;5912;51.034;6.984;2023-08-20T00:15:50;6.13;;;5.22;;
11711;SDS011;5912;51.034;6.984;2023-08-20T00:18:19;6.00;;;5.50;;
11711;SDS011;5912;51.034;6.984;2023-08-20T00:20:44;5.95;;;5.45;;
11711;SDS011;5912;51.034;6.984;2023-08-20T00:23:19;7.30;;;5.93;;
11711;SDS011;5912;51.034;6.984;2023-08-20T00:25:45;5.68;;;5.15;;
11711;SDS011;5912;51.034;6.984;2023-08-20T00:28:22;5.82;;;5.28;;
11711;SDS011;5912;51.034;6.984;2023-08-20T00:31:00;6.32;;;5.50;;
11711;SDS011;5912;51.034;6.984;2023-08-20T00:33:26;10.15;;;6.70;;
11711;SDS011;5912;51.034;6.984;2023-08-20T00:35:51;5.78;;;5.28;;
11711;SDS011;5912;51.034;6.984;2023-08-20T00:38:23;6.53;;;5.80;;
11711;SDS011;5912;51.034;6.984;2023-08-20T00:40:48;6.05;;;5.55;;
11711;SDS011;5912;51.034;6.984;2023-08-20T00:43:13;7.72;;;6.25;;
11711;SDS011;5912;51.034;6.984;2023-08-20T00:45:40;7.47;;;5.53;;
11711;SDS011;5912;51.034;6.984;2023-08-20T00:48:06;6.05;;;5.13;;
11711;SDS011;5912;51.034;6.984;2023-08-20T00:50:32;6.57;;;5.50;;
11711;SDS011;5912;51.034;6.984;2023-08-20T00:52:58;6.20;;;5.13;;
11711;SDS011;5912;51.034;6.984;2023-08-20T00:55:23;5.38;;;4.88;;
11711;SDS011;5912;51.034;6.984;2023-08-20T00:57:48;5.68;;;5.10;;
11711;SDS011;5912;51.034;6.984;2023-08-20T01:00:29;6.18;;;5.00;;
11711;SDS011;5912;51.034;6.984;2023-08-20T01:03:03;5.18;;;4.68;;
11711;SDS011;5912;51.034;6.984;2023-08-20T01:05:30;6.13;;;5.60;;
11711;SDS011;5912;51.034;6.984;2023-08-20T01:08:18;5.55;;;5.00;;
11711;SDS011;5912;51.034;6.984;2023-08-20T01:11:12;5.80;;;5.20;;
11711;SDS011;5912;51.034;6.984;2023-08-20T01:16:42;7.10;;;5.80;;
11711;SDS011;5912;51.034;6.984;2023-08-20T01:19:10;7.07;;;5.43;;
11711;SDS011;5912;51.034;6.984;2023-08-20T01:28:35;5.95;;;5.28;;
11711;SDS011;5912;51.034;6.984;2023-08-20T01:31:01;6.30;;;4.95;;
11711;SDS011;5912;51.034;6.984;2023-08-20T01:33:34;5.57;;;5.00;;
11711;SDS011;5912;51.034;6.984;2023-08-20T01:36:00;6.38;;;5.45;;
11711;SDS011;5912;51.034;6.984;2023-08-20T01:38:25;6.63;;;5.93;;
11711;SDS011;5912;51.034;6.984;2023-08-20T01:41:06;6.18;;;5.57;;
11711;SDS011;5912;51.034;6.984;2023-08-20T01:43:43;6.00;;;5.40;;
11711;SDS011;5912;51.034;6.984;2023-08-20T01:46:18;5.85;;;5.18;;
11711;SDS011;5912;51.034;6.984;2023-08-20T01:48:44;6.03;;;5.38;;
11711;SDS011;5912;51.034;6.984;2023-08-20T01:51:13;5.60;;;5.10;;
11711;SDS011;5912;51.034;6.984;2023-08-20T01:53:41;5.32;;;4.82;;
11711;SDS011;5912;51.034;6.984;2023-08-20T01:56:16;5.30;;;4.80;;
11711;SDS011;5912;51.034;6.984;2023-08-20T01:58:53;5.47;;;4.97;;
11711;SDS011;5912;51.034;6.984;2023-08-20T02:01:18;7.40;;;4.90;;
11711;SDS011;5912;51.034;6.984;2023-08-20T02:03:44;6.13;;;4.90;;
11711;SDS011;5912;51.034;6.984;2023-08-20T02:06:09;5.45;;;4.95;;
11711;SDS011;5912;51.034;6.984;2023-08-20T02:08:40;5.55;;;5.05;;
11711;SDS011;5912;51.034;6.984;2023-08-20T02:11:06;5.95;;;5.35;;
11711;SDS011;5912;51.034;6.984;2023-08-20T02:13:34;4.90;;;4.45;;
11711;SDS011;5912;51.034;6.984;2023-08-20T02:16:11;5.72;;;5.18;;
11711;SDS011;5912;51.034;6.984;2023-08-20T02:18:37;7.50;;;5.80;;
11711;SDS011;5912;51.034;6.984;2023-08-20T02:21:05;7.85;;;5.72;;
11711;SDS011;5912;51.034;6.984;2023-08-20T02:23:30;5.93;;;5.30;;
11711;SDS011;5912;51.034;6.984;2023-08-20T02:25:56;6.57;;;5.60;;
11711;SDS011;5912;51.034;6.984;2023-08-20T02:28:26;6.13;;;5.15;;
11711;SDS011;5912;51.034;6.984;2023-08-20T02:33:38;7.03;;;5.50;;
11711;SDS011;5912;51.034;6.984;2023-08-20T02:36:16;5.72;;;5.00;;
11711;SDS011;5912;51.034;6.984;2023-08-20T02:38:41;6.10;;;5.50;;
11711;SDS011;5912;51.034;6.984;2023-08-20T02:41:07;5.85;;;5.35;;
11711;SDS011;5912;51.034;6.984;2023-08-20T02:43:32;5.95;;;5.00;;
11711;SDS011;5912;51.034;6.984;2023-08-20T02:45:57;5.85;;;5.32;;
11711;SDS011;5912;51.034;6.984;2023-08-20T02:48:26;5.45;;;4.95;;
11711;SDS011;5912;51.034;6.984;2023-08-20T02:50:57;6.55;;;5.80;;
11711;SDS011;5912;51.034;6.984;2023-08-20T02:53:32;5.65;;;5.05;;
11711;SDS011;5912;51.034;6.984;2023-08-20T02:56:06;6.05;;;5.32;;
11711;SDS011;5912;51.034;6.984;2023-08-20T02:58:43;6.53;;;5.75;;
11711;SDS011;5912;51.034;6.984;2023-08-20T03:01:18;6.20;;;5.60;;
11711;SDS011;5912;51.034;6.984;2023-08-20T03:03:44;6.43;;;5.43;;
11711;SDS011;5912;51.034;6.984;2023-08-20T03:06:09;6.38;;;5.78;;
11711;SDS011;5912;51.034;6.984;2023-08-20T03:08:35;6.60;;;6.00;;
11711;SDS011;5912;51.034;6.984;2023-08-20T03:11:06;6.28;;;5.68;;
11711;SDS011;5912;51.034;6.984;2023-08-20T03:19:18;5.95;;;4.97;;
11711;SDS011;5912;51.034;6.984;2023-08-20T03:21:43;7.32;;;5.57;;
11711;SDS011;5912;51.034;6.984;2023-08-20T03:24:08;5.82;;;5.22;;
11711;SDS011;5912;51.034;6.984;2023-08-20T03:26:34;5.25;;;4.75;;
11711;SDS011;5912;51.034;6.984;2023-08-20T03:28:59;5.95;;;5.35;;
11711;SDS011;5912;51.034;6.984;2023-08-20T03:31:24;5.97;;;4.93;;
11711;SDS011;5912;51.034;6.984;2023-08-20T03:33:53;5.50;;;4.95;;
11711;SDS011;5912;51.034;6.984;2023-08-20T03:36:18;7.95;;;5.10;;
11711;SDS011;5912;51.034;6.984;2023-08-20T03:38:49;6.32;;;5.72;;
11711;SDS011;5912;51.034;6.984;2023-08-20T03:41:18;6.57;;;5.85;;
11711;SDS011;5912;51.034;6.984;2023-08-20T03:43:43;5.70;;;5.20;;
11711;SDS011;5912;51.034;6.984;2023-08-20T03:46:09;6.03;;;5.43;;
11711;SDS011;5912;51.034;6.984;2023-08-20T03:48:46;6.05;;;5.55;;
11711;SDS011;5912;51.034;6.984;2023-08-20T03:51:11;7.53;;;6.25;;
11711;SDS011;5912;51.034;6.984;2023-08-20T03:53:47;7.13;;;6.43;;
11711;SDS011;5912;51.034;6.984;2023-08-20T03:56:12;7.30;;;6.25;;
11711;SDS011;5912;51.034;6.984;2023-08-20T03:58:38;6.75;;;6.10;;
11711;SDS011;5912;51.034;6.984;2023-08-20T04:01:03;7.20;;;6.50;;
11711;SDS011;5912;51.034;6.984;2023-08-20T04:03:32;6.50;;;5.80;;
11711;SDS011;5912;51.034;6.984;2023-08-20T04:05:59;6.65;;;5.72;;
11711;SDS011;5912;51.034;6.984;2023-08-20T04:08:30;7.57;;;6.47;;
11711;SDS011;5912;51.034;6.984;2023-08-20T04:11:07;8.98;;;6.28;;
11711;SDS011;5912;51.034;6.984;2023-08-20T04:13:34;6.85;;;6.15;;
11711;SDS011;5912;51.034;6.984;2023-08-20T04:15:59;6.97;;;6.38;;
11711;SDS011;5912;51.034;6.984;2023-08-20T04:18:28;7.18;;;6.03;;
11711;SDS011;5912;51.034;6.984;2023-08-20T04:20:53;6.15;;;5.55;;
11711;SDS011;5912;51.034;6.984;2023-08-20T04:23:28;6.82;;;6.13;;
11711;SDS011;5912;51.034;6.984;2023-08-20T04:25:53;8.23;;;6.00;;
11711;SDS011;5912;51.034;6.984;2023-08-20T04:28:19;6.28;;;5.68;;
11711;SDS011;5912;51.034;6.984;2023-08-20T04:30:44;7.18;;;6.47;;
11711;SDS011;5912;51.034;6.984;2023-08-20T04:33:09;6.13;;;5.53;;
11711;SDS011;5912;51.034;6.984;2023-08-20T04:35:35;6.25;;;5.50;;
11711;SDS011;5912;51.034;6.984;2023-08-20T04:38:01;6.13;;;5.50;;
11711;SDS011;5912;51.034;6.984;2023-08-20T04:40:26;6.03;;;5.50;;
11711;SDS011;5912;51.034;6.984;2023-08-20T04:46:06;6.30;;;5.78;;
11711;SDS011;5912;51.034;6.984;2023-08-20T04:48:31;8.73;;;6.07;;
11711;SDS011;5912;51.034;6.984;2023-08-20T04:51:07;6.95;;;5.95;;
11711;SDS011;5912;51.034;6.984;2023-08-20T04:53:42;7.15;;;5.95;;
11711;SDS011;5912;51.034;6.984;2023-08-20T04:56:07;6.70;;;5.80;;
11711;SDS011;5912;51.034;6.984;2023-08-20T05:01:32;6.90;;;5.93;;
11711;SDS011;5912;51.034;6.984;2023-08-20T05:03:58;6.45;;;5.85;;
11711;SDS011;5912;51.034;6.984;2023-08-20T05:06:38;7.00;;;5.88;;
11711;SDS011;5912;51.034;6.984;2023-08-20T05:09:16;6.38;;;5.35;;
11711;SDS011;5912;51.034;6.984;2023-08-20T05:11:41;5.63;;;5.10;;
11711;SDS011;5912;51.034;6.984;2023-08-20T05:14:07;5.60;;;5.10;;
11711;SDS011;5912;51.034;6.984;2023-08-20T05:16:32;5.57;;;5.07;;
11711;SDS011;5912;51.034;6.984;2023-08-20T05:18:58;4.88;;;4.47;;
11711;SDS011;5912;51.034;6.984;2023-08-20T05:21:23;5.60;;;5.13;;
11711;SDS011;5912;51.034;6.984;2023-08-20T05:23:52;6.32;;;5.30;;
11711;SDS011;5912;51.034;6.984;2023-08-20T05:26:26;5.63;;;5.13;;
11711;SDS011;5912;51.034;6.984;2023-08-20T05:28:55;5.40;;;4.97;;
11711;SDS011;5912;51.034;6.984;2023-08-20T05:31:23;5.93;;;5.43;;
11711;SDS011;5912;51.034;6.984;2023-08-20T05:33:51;6.75;;;5.85;;
11711;SDS011;5912;51.034;6.984;2023-08-20T05:36:16;6.68;;;6.07;;
11711;SDS011;5912;51.034;6.984;2023-08-20T05:38:42;6.18;;;5.68;;
11711;SDS011;5912;51.034;6.984;2023-08-20T05:41:08;6.20;;;5.60;;
11711;SDS011;5912;51.034;6.984;2023-08-20T05:43:33;5.95;;;5.35;;
11711;SDS011;5912;51.034;6.984;2023-08-20T05:46:13;6.28;;;5.68;;
11711;SDS011;5912;51.034;6.984;2023-08-20T05:48:39;5.63;;;4.95;;
11711;SDS011;5912;51.034;6.984;2023-08-20T05:51:04;6.13;;;5.53;;
11711;SDS011;5912;51.034;6.984;2023-08-20T05:53:29;4.90;;;4.50;;
11711;SDS011;5912;51.034;6.984;2023-08-20T05:55:55;5.32;;;4.82;;
11711;SDS011;5912;51.034;6.984;2023-08-20T05:58:20;6.30;;;5.10;;
11711;SDS011;5912;51.034;6.984;2023-08-20T06:00:51;5.70;;;5.20;;
11711;SDS011;5912;51.034;6.984;2023-08-20T06:03:17;6.32;;;5.72;;
11711;SDS011;5912;51.034;6.984;2023-08-20T06:05:51;5.78;;;5.25;;
11711;SDS011;5912;51.034;6.984;2023-08-20T06:08:29;6.20;;;5.70;;
11711;SDS011;5912;51.034;6.984;2023-08-20T06:11:10;6.30;;;5.70;;
11711;SDS011;5912;51.034;6.984;2023-08-20T06:13:35;6.22;;;5.63;;
11711;SDS011;5912;51.034;6.984;2023-08-20T06:16:00;6.68;;;5.10;;
11711;SDS011;5912;51.034;6.984;2023-08-20T06:18:26;6.93;;;5.38;;
11711;SDS011;5912;51.034;6.984;2023-08-20T06:20:51;6.60;;;6.00;;
11711;SDS011;5912;51.034;6.984;2023-08-20T06:23:49;6.00;;;5.50;;
11711;SDS011;5912;51.034;6.984;2023-08-20T06:29:07;6.65;;;5.82;;
11711;SDS011;5912;51.034;6.984;2023-08-20T06:31:39;6.82;;;5.63;;
11711;SDS011;5912;51.034;6.984;2023-08-20T06:34:07;7.25;;;5.85;;
11711;SDS011;5912;51.034;6.984;2023-08-20T06:36:35;6.85;;;5.97;;
11711;SDS011;5912;51.034;6.984;2023-08-20T06:39:01;9.30;;;6.07;;
11711;SDS011;5912;51.034;6.984;2023-08-20T06:41:36;7.00;;;6.30;;
11711;SDS011;5912;51.034;6.984;2023-08-20T06:44:02;6.95;;;5.78;;
11711;SDS011;5912;51.034;6.984;2023-08-20T06:46:28;6.30;;;5.70;;
11711;SDS011;5912;51.034;6.984;2023-08-20T06:48:53;7.85;;;6.45;;
11711;SDS011;5912;51.034;6.984;2023-08-20T06:51:22;7.60;;;5.57;;
11711;SDS011;5912;51.034;6.984;2023-08-20T06:53:50;7.07;;;5.53;;
11711;SDS011;5912;51.034;6.984;2023-08-20T06:56:19;6.00;;;5.40;;
11711;SDS011;5912;51.034;6.984;2023-08-20T06:58:44;5.20;;;4.70;;
11711;SDS011;5912;51.034;6.984;2023-08-20T07:01:15;9.02;;;5.90;;
11711;SDS011;5912;51.034;6.984;2023-08-20T07:03:41;8.25;;;6.28;;
11711;SDS011;5912;51.034;6.984;2023-08-20T07:06:20;8.10;;;5.88;;
11711;SDS011;5912;51.034;6.984;2023-08-20T07:08:51;8.13;;;6.45;;
11711;SDS011;5912;51.034;6.984;2023-08-20T07:11:23;6.60;;;5.40;;
11711;SDS011;5912;51.034;6.984;2023-08-20T07:13:48;9.77;;;5.45;;
11711;SDS011;5912;51.034;6.984;2023-08-20T07:16:13;9.65;;;5.75;;
11711;SDS011;5912;51.034;6.984;2023-08-20T07:18:51;9.70;;;7.07;;
11711;SDS011;5912;51.034;6.984;2023-08-20T07:21:18;7.57;;;5.32;;
11711;SDS011;5912;51.034;6.984;2023-08-20T07:23:43;8.35;;;6.00;;
11711;SDS011;5912;51.034;6.984;2023-08-20T07:26:09;7.05;;;5.38;;
11711;SDS011;5912;51.034;6.984;2023-08-20T07:28:37;7.10;;;5.78;;
11711;SDS011;5912;51.034;6.984;2023-08-20T07:31:28;5.93;;;4.65;;
11711;SDS011;5912;51.034;6.984;2023-08-20T07:33:55;4.97;;;4.47;;
11711;SDS011;5912;51.034;6.984;2023-08-20T07:36:43;6.30;;;5.25;;
11711;SDS011;5912;51.034;6.984;2023-08-20T07:39:17;7.55;;;6.78;;
11711;SDS011;5912;51.034;6.984;2023-08-20T07:41:42;6.45;;;5.07;;
11711;SDS011;5912;51.034;6.984;2023-08-20T07:44:20;6.47;;;4.75;;
11711;SDS011;5912;51.034;6.984;2023-08-20T07:46:45;6.88;;;5.53;;
11711;SDS011;5912;51.034;6.984;2023-08-20T07:49:15;8.05;;;6.00;;
11711;SDS011;5912;51.034;6.984;2023-08-20T07:51:50;7.88;;;6.03;;
11711;SDS011;5912;51.034;6.984;2023-08-20T07:54:23;11.50;;;6.68;;
11711;SDS011;5912;51.034;6.984;2023-08-20T07:56:48;8.95;;;5.88;;
11711;SDS011;5912;51.034;6.984;2023-08-20T07:59:13;7.85;;;4.78;;
11711;SDS011;5912;51.034;6.984;2023-08-20T08:01:39;8.25;;;5.50;;
11711;SDS011;5912;51.034;6.984;2023-08-20T08:04:04;7.22;;;5.10;;
11711;SDS011;5912;51.034;6.984;2023-08-20T08:06:30;7.78;;;5.35;;
11711;SDS011;5912;51.034;6.984;2023-08-20T08:08:55;7.82;;;5.95;;
11711;SDS011;5912;51.034;6.984;2023-08-20T08:11:32;9.98;;;6.43;;
11711;SDS011;5912;51.034;6.984;2023-08-20T08:13:58;8.15;;;5.65;;
11711;SDS011;5912;51.034;6.984;2023-08-20T08:16:23;9.48;;;5.75;;
11711;SDS011;5912;51.034;6.984;2023-08-20T08:18:48;7.53;;;5.50;;
11711;SDS011;5912;51.034;6.984;2023-08-20T08:21:14;8.45;;;4.60;;
11711;SDS011;5912;51.034;6.984;2023-08-20T08:23:39;6.95;;;5.07;;
11711;SDS011;5912;51.034;6.984;2023-08-20T08:26:14;6.13;;;4.70;;
11711;SDS011;5912;51.034;6.984;2023-08-20T08:28:39;5.15;;;4.60;;
11711;SDS011;5912;51.034;6.984;2023-08-20T08:31:04;6.93;;;4.70;;
11711;SDS011;5912;51.034;6.984;2023-08-20T08:33:33;4.53;;;4.10;;
11711;SDS011;5912;51.034;6.984;2023-08-20T08:38:53;5.03;;;3.50;;
11711;SDS011;5912;51.034;6.984;2023-08-20T08:41:25;4.97;;;3.83;;
11711;SDS011;5912;51.034;6.984;2023-08-20T08:44:05;4.82;;;3.97;;
11711;SDS011;5912;51.034;6.984;2023-08-20T08:46:45;4.47;;;3.50;;
11711;SDS011;5912;51.034;6.984;2023-08-20T08:49:15;5.25;;;3.97;;
11711;SDS011;5912;51.034;6.984;2023-08-20T08:51:42;4.28;;;3.17;;
11711;SDS011;5912;51.034;6.984;2023-08-20T08:54:21;5.07;;;3.17;;
11711;SDS011;5912;51.034;6.984;2023-08-20T08:56:53;3.58;;;2.90;;
11711;SDS011;5912;51.034;6.984;2023-08-20T08:59:18;3.40;;;3.10;;
11711;SDS011;5912;51.034;6.984;2023-08-20T09:01:44;4.30;;;3.90;;
11711;SDS011;5912;51.034;6.984;2023-08-20T09:04:13;5.13;;;3.50;;
11711;SDS011;5912;51.034;6.984;2023-08-20T09:09:45;5.55;;;4.10;;
11711;SDS011;5912;51.034;6.984;2023-08-20T09:12:17;4.40;;;3.60;;
11711;SDS011;5912;51.034;6.984;2023-08-20T09:15:03;4.05;;;3.20;;
11711;SDS011;5912;51.034;6.984;2023-08-20T09:17:35;3.83;;;3.20;;
11711;SDS011;5912;51.034;6.984;2023-08-20T09:20:13;2.95;;;2.75;;
11711;SDS011;5912;51.034;6.984;2023-08-20T09:22:50;3.30;;;2.85;;
11711;SDS011;5912;51.034;6.984;2023-08-20T09:25:15;3.00;;;2.67;;
11711;SDS011;5912;51.034;6.984;2023-08-20T09:28:02;3.35;;;2.85;;
11711;SDS011;5912;51.034;6.984;2023-08-20T09:33:50;4.55;;;3.30;;
11711;SDS011;5912;51.034;6.984;2023-08-20T09:36:28;5.40;;;3.28;;
11711;SDS011;5912;51.034;6.984;2023-08-20T09:38:58;3.33;;;3.00;;
11711;SDS011;5912;51.034;6.984;2023-08-20T09:41:24;4.32;;;2.80;;
11711;SDS011;5912;51.034;6.984;2023-08-20T09:46:59;4.00;;;2.70;;
11711;SDS011;5912;51.034;6.984;2023-08-20T09:49:27;4.13;;;2.78;;
11711;SDS011;5912;51.034;6.984;2023-08-20T09:52:38;3.92;;;2.40;;
11711;SDS011;5912;51.034;6.984;2023-08-20T09:55:09;4.53;;;2.75;;
11711;SDS011;5912;51.034;6.984;2023-08-20T10:01:01;3.20;;;2.40;;
11711;SDS011;5912;51.034;6.984;2023-08-20T10:03:27;3.13;;;2.75;;
11711;SDS011;5912;51.034;6.984;2023-08-20T10:05:52;3.15;;;2.70;;
11711;SDS011;5912;51.034;6.984;2023-08-20T10:08:19;2.88;;;2.00;;
11711;SDS011;5912;51.034;6.984;2023-08-20T10:10:45;2.63;;;2.00;;
11711;SDS011;5912;51.034;6.984;2023-08-20T10:13:11;2.50;;;2.17;;
11711;SDS011;5912;51.034;6.984;2023-08-20T10:15:48;3.63;;;2.33;;
11711;SDS011;5912;51.034;6.984;2023-08-20T10:18:20;3.53;;;2.38;;
11711;SDS011;5912;51.034;6.984;2023-08-20T10:20:47;3.30;;;2.10;;
11711;SDS011;5912;51.034;6.984;2023-08-20T10:23:27;3.03;;;2.22;;
11711;SDS011;5912;51.034;6.984;2023-08-20T10:26:08;2.95;;;2.10;;
11711;SDS011;5912;51.034;6.984;2023-08-20T10:28:39;3.45;;;2.20;;
11711;SDS011;5912;51.034;6.984;2023-08-20T10:33:57;2.22;;;2.03;;
11711;SDS011;5912;51.034;6.984;2023-08-20T10:36:23;2.55;;;2.25;;
11711;SDS011;5912;51.034;6.984;2023-08-20T10:39:08;2.67;;;2.30;;
11711;SDS011;5912;51.034;6.984;2023-08-20T10:41:45;2.75;;;2.20;;
11711;SDS011;5912;51.034;6.984;2023-08-20T10:44:10;2.60;;;2.30;;
11711;SDS011;5912;51.034;6.984;2023-08-20T10:46:36;3.20;;;2.90;;
11711;SDS011;5912;51.034;6.984;2023-08-20T10:49:15;3.00;;;2.70;;
11711;SDS011;5912;51.034;6.984;2023-08-20T10:51:41;4.85;;;3.38;;
11711;SDS011;5912;51.034;6.984;2023-08-20T10:54:08;4.28;;;3.42;;
11711;SDS011;5912;51.034;6.984;2023-08-20T11:01:47;6.10;;;3.40;;
11711;SDS011;5912;51.034;6.984;2023-08-20T11:04:14;4.43;;;3.00;;
11711;SDS011;5912;51.034;6.984;2023-08-20T11:06:40;3.55;;;3.25;;
11711;SDS011;5912;51.034;6.984;2023-08-20T11:09:06;4.32;;;3.92;;
11711;SDS011;5912;51.034;6.984;2023-08-20T11:11:32;3.60;;;3.30;;
11711;SDS011;5912;51.034;6.984;2023-08-20T11:14:03;3.83;;;3.38;;
11711;SDS011;5912;51.034;6.984;2023-08-20T11:16:30;3.03;;;2.75;;
11711;SDS011;5912;51.034;6.984;2023-08-20T11:18:56;3.95;;;3.55;;
11711;SDS011;5912;51.034;6.984;2023-08-20T11:21:22;3.80;;;3.10;;
11711;SDS011;5912;51.034;6.984;2023-08-20T11:23:47;3.38;;;3.08;;
11711;SDS011;5912;51.034;6.984;2023-08-20T11:26:13;4.20;;;3.72;;
11711;SDS011;5912;51.034;6.984;2023-08-20T11:28:38;3.97;;;3.63;;
11711;SDS011;5912;51.034;6.984;2023-08-20T11:31:03;3.70;;;3.03;;
11711;SDS011;5912;51.034;6.984;2023-08-20T11:33:29;4.00;;;3.00;;
11711;SDS011;5912;51.034;6.984;2023-08-20T11:35:54;3.08;;;2.78;;
11711;SDS011;5912;51.034;6.984;2023-08-20T11:38:20;2.95;;;2.75;;
11711;SDS011;5912;51.034;6.984;2023-08-20T11:40:48;3.67;;;3.38;;
11711;SDS011;5912;51.034;6.984;2023-08-20T11:43:13;5.55;;;3.50;;
11711;SDS011;5912;51.034;6.984;2023-08-20T11:45:48;4.22;;;3.63;;
11711;SDS011;5912;51.034;6.984;2023-08-20T11:48:14;3.53;;;3.20;;
11711;SDS011;5912;51.034;6.984;2023-08-20T11:50:40;3.22;;;3.00;;
11711;SDS011;5912;51.034;6.984;2023-08-20T11:53:06;3.20;;;2.90;;
11711;SDS011;5912;51.034;6.984;2023-08-20T11:55:33;3.75;;;3.00;;
11711;SDS011;5912;51.034;6.984;2023-08-20T11:57:58;3.80;;;3.03;;
11711;SDS011;5912;51.034;6.984;2023-08-20T12:00:39;3.10;;;2.80;;
11711;SDS011;5912;51.034;6.984;2023-08-20T12:03:04;3.75;;;2.65;;
11711;SDS011;5912;51.034;6.984;2023-08-20T12:05:30;3.08;;;2.80;;
11711;SDS011;5912;51.034;6.984;2023-08-20T12:10:22;2.55;;;2.35;;
11711;SDS011;5912;51.034;6.984;2023-08-20T12:12:49;2.60;;;2.40;;
11711;SDS011;5912;51.034;6.984;2023-08-20T12:15:15;2.58;;;2.38;;
11711;SDS011;5912;51.034;6.984;2023-08-20T12:17:40;2.53;;;2.33;;
11711;SDS011;5912;51.034;6.984;2023-08-20T12:20:05;3.40;;;3.10;;
11711;SDS011;5912;51.034;6.984;2023-08-20T12:22:49;3.20;;;2.50;;
11711;SDS011;5912;51.034;6.984;2023-08-20T12:25:15;4.35;;;3.00;;
11711;SDS011;5912;51.034;6.984;2023-08-20T12:27:41;3.65;;;3.28;;
11711;SDS011;5912;51.034;6.984;2023-08-20T12:30:06;3.35;;;2.70;;
11711;SDS011;5912;51.034;6.984;2023-08-20T12:32:32;3.40;;;3.10;;
11711;SDS011;5912;51.034;6.984;2023-08-20T12:34:57;3.13;;;2.83;;
11711;SDS011;5912;51.034;6.984;2023-08-20T12:37:22;3.40;;;3.10;;
11711;SDS011;5912;51.034;6.984;2023-08-20T12:39:48;2.90;;;2.67;;
11711;SDS011;5912;51.034;6.984;2023-08-20T12:42:14;3.17;;;2.88;;
11711;SDS011;5912;51.034;6.984;2023-08-20T12:44:39;2.85;;;2.55;;
11711;SDS011;5912;51.034;6.984;2023-08-20T12:47:04;3.40;;;2.60;;
11711;SDS011;5912;51.034;6.984;2023-08-20T12:49:30;2.95;;;2.60;;
11711;SDS011;5912;51.034;6.984;2023-08-20T12:51:55;2.88;;;2.30;;
11711;SDS011;5912;51.034;6.984;2023-08-20T12:54:20;3.08;;;2.55;;
11711;SDS011;5912;51.034;6.984;2023-08-20T12:56:45;2.58;;;2.25;;
11711;SDS011;5912;51.034;6.984;2023-08-20T12:59:11;2.72;;;2.10;;
11711;SDS011;5912;51.034;6.984;2023-08-20T13:01:36;2.30;;;2.08;;
11711;SDS011;5912;51.034;6.984;2023-08-20T13:04:01;2.30;;;1.98;;
11711;SDS011;5912;51.034;6.984;2023-08-20T13:06:38;2.83;;;2.60;;
11711;SDS011;5912;51.034;6.984;2023-08-20T13:09:04;2.17;;;2.00;;
11711;SDS011;5912;51.034;6.984;2023-08-20T13:11:31;3.28;;;2.40;;
11711;SDS011;5912;51.034;6.984;2023-08-20T13:13:57;2.35;;;2.15;;
11711;SDS011;5912;51.034;6.984;2023-08-20T13:16:32;3.42;;;3.13;;
11711;SDS011;5912;51.034;6.984;2023-08-20T13:18:58;4.40;;;3.90;;
11711;SDS011;5912;51.034;6.984;2023-08-20T13:21:32;4.65;;;2.80;;
11711;SDS011;5912;51.034;6.984;2023-08-20T13:24:04;3.03;;;2.33;;
11711;SDS011;5912;51.034;6.984;2023-08-20T13:26:30;2.53;;;2.00;;
11711;SDS011;5912;51.034;6.984;2023-08-20T13:28:55;3.95;;;1.80;;
11711;SDS011;5912;51.034;6.984;2023-08-20T13:31:20;2.55;;;1.95;;
11711;SDS011;5912;51.034;6.984;2023-08-20T13:33:46;3.08;;;2.78;;
11711;SDS011;5912;51.034;6.984;2023-08-20T13:36:11;5.20;;;4.10;;
11711;SDS011;5912;51.034;6.984;2023-08-20T13:38:36;3.45;;;2.60;;
11711;SDS011;5912;51.034;6.984;2023-08-20T13:41:02;2.30;;;1.95;;
11711;SDS011;5912;51.034;6.984;2023-08-20T13:43:27;2.50;;;2.30;;
11711;SDS011;5912;51.034;6.984;2023-08-20T13:45:52;2.55;;;2.08;;
11711;SDS011;5912;51.034;6.984;2023-08-20T13:48:18;2.13;;;2.00;;
11711;SDS011;5912;51.034;6.984;2023-08-20T13:50:43;1.80;;;1.70;;
11711;SDS011;5912;51.034;6.984;2023-08-20T13:53:08;2.10;;;1.90;;
11711;SDS011;5912;51.034;6.984;2023-08-20T13:55:35;2.30;;;2.08;;
11711;SDS011;5912;51.034;6.984;2023-08-20T13:58:00;2.50;;;2.20;;
11711;SDS011;5912;51.034;6.984;2023-08-20T14:00:25;2.83;;;2.10;;
11711;SDS011;5912;51.034;6.984;2023-08-20T14:02:51;3.58;;;2.15;;
11711;SDS011;5912;51.034;6.984;2023-08-20T14:05:16;3.65;;;2.58;;
11711;SDS011;5912;51.034;6.984;2023-08-20T14:07:49;4.38;;;2.78;;
11711;SDS011;5912;51.034;6.984;2023-08-20T14:10:14;3.25;;;2.28;;
11711;SDS011;5912;51.034;6.984;2023-08-20T14:12:40;3.92;;;2.78;;
11711;SDS011;5912;51.034;6.984;2023-08-20T14:15:06;2.22;;;2.03;;
11711;SDS011;5912;51.034;6.984;2023-08-20T14:17:32;2.17;;;1.98;;
11711;SDS011;5912;51.034;6.984;2023-08-20T14:19:57;2.45;;;2.22;;
11711;SDS011;5912;51.034;6.984;2023-08-20T14:22:23;2.67;;;2.45;;
11711;SDS011;5912;51.034;6.984;2023-08-20T14:24:48;2.63;;;2.00;;
11711;SDS011;5912;51.034;6.984;2023-08-20T14:27:13;2.28;;;2.08;;
11711;SDS011;5912;51.034;6.984;2023-08-20T14:29:45;2.92;;;2.30;;
11711;SDS011;5912;51.034;6.984;2023-08-20T14:32:10;3.05;;;2.25;;
11711;SDS011;5912;51.034;6.984;2023-08-20T14:34:38;2.70;;;2.50;;
11711;SDS011;5912;51.034;6.984;2023-08-20T14:37:13;3.67;;;2.20;;
11711;SDS011;5912;51.034;6.984;2023-08-20T14:39:41;2.70;;;2.50;;
11711;SDS011;5912;51.034;6.984;2023-08-20T14:42:13;3.88;;;2.58;;
11711;SDS011;5912;51.034;6.984;2023-08-20T14:44:38;2.83;;;2.40;;
11711;SDS011;5912;51.034;6.984;2023-08-20T14:47:16;3.00;;;2.30;;
11711;SDS011;5912;51.034;6.984;2023-08-20T14:49:49;3.40;;;2.88;;
11711;SDS011;5912;51.034;6.984;2023-08-20T14:52:15;3.00;;;2.70;;
11711;SDS011;5912;51.034;6.984;2023-08-20T14:54:40;2.92;;;2.65;;
11711;SDS011;5912;51.034;6.984;2023-08-20T15:00:22;3.72;;;3.20;;
11711;SDS011;5912;51.034;6.984;2023-08-20T15:05:35;3.33;;;3.00;;
11711;SDS011;5912;51.034;6.984;2023-08-20T15:08:00;4.72;;;3.45;;
11711;SDS011;5912;51.034;6.984;2023-08-20T15:10:26;3.83;;;3.42;;
11711;SDS011;5912;51.034;6.984;2023-08-20T15:12:51;3.75;;;3.42;;
11711;SDS011;5912;51.034;6.984;2023-08-20T15:15:17;5.97;;;4.50;;
11711;SDS011;5912;51.034;6.984;2023-08-20T15:17:42;6.32;;;4.63;;
11711;SDS011;5912;51.034;6.984;2023-08-20T15:20:11;4.22;;;3.80;;
11711;SDS011;5912;51.034;6.984;2023-08-20T15:22:36;3.67;;;3.28;;
11711;SDS011;5912;51.034;6.984;2023-08-20T15:25:03;4.03;;;3.63;;
11711;SDS011;5912;51.034;6.984;2023-08-20T15:27:39;4.18;;;3.53;;
11711;SDS011;5912;51.034;6.984;2023-08-20T15:30:04;4.32;;;3.88;;
11711;SDS011;5912;51.034;6.984;2023-08-20T15:32:40;3.58;;;3.28;;
11711;SDS011;5912;51.034;6.984;2023-08-20T15:35:05;4.10;;;3.70;;
11711;SDS011;5912;51.034;6.984;2023-08-20T15:37:32;4.72;;;3.75;;
11711;SDS011;5912;51.034;6.984;2023-08-20T15:39:57;4.75;;;3.97;;
11711;SDS011;5912;51.034;6.984;2023-08-20T15:42:22;4.65;;;4.25;;
11711;SDS011;5912;51.034;6.984;2023-08-20T15:45:00;3.90;;;3.60;;
11711;SDS011;5912;51.034;6.984;2023-08-20T15:47:25;4.40;;;4.00;;
11711;SDS011;5912;51.034;6.984;2023-08-20T15:49:51;4.32;;;3.92;;
11711;SDS011;5912;51.034;6.984;2023-08-20T15:52:16;6.15;;;4.00;;
11711;SDS011;5912;51.034;6.984;2023-08-20T15:54:41;4.95;;;4.43;;
11711;SDS011;5912;51.034;6.984;2023-08-20T15:57:07;5.13;;;4.72;;
11711;SDS011;5912;51.034;6.984;2023-08-20T15:59:35;4.53;;;4.13;;
11711;SDS011;5912;51.034;6.984;2023-08-20T16:02:00;6.55;;;4.38;;
11711;SDS011;5912;51.034;6.984;2023-08-20T16:04:26;5.35;;;4.65;;
11711;SDS011;5912;51.034;6.984;2023-08-20T16:06:51;5.35;;;4.13;;
11711;SDS011;5912;51.034;6.984;2023-08-20T16:09:16;7.78;;;5.53;;